Time;durP1;ratioP1;P1;durP2;ratioP2;P2;SDS_P1;SDS_P2;PMS_P1;PMS_P2;Temp;Humidity;BMP_temperature;BMP_pressure;BME280_temperature;BME280_humidity;BME280_pressure;Samples;Min_cycle;Max_cycle;Signal;HPM_P1;HPM_P2
2021/12/09 00:00:21;;;;;;;4.65;3.80;;;;;;;;;;5054525;28;20276;-76
2021/12/09 00:02:49;;;;;;;3.97;3.28;;;;;;;;;;5053037;28;20203;-78
2021/12/09 00:05:18;;;;;;;5.03;3.70;;;;;;;;;;5065163;28;20221;-76
2021/12/09 00:07:50;;;;;;;3.55;2.90;;;;;;;;;;5046729;28;20604;-77
2021/12/09 00:10:17;;;;;;;3.63;3.10;;;;;;;;;;5055222;28;20222;-77
2021/12/09 00:12:44;;;;;;;4.05;2.85;;;;;;;;;;5064330;28;20317;-78
2021/12/09 00:15:11;;;;;;;4.60;3.55;;;;;;;;;;5048008;28;20193;-77
2021/12/09 00:17:38;;;;;;;3.50;3.20;;;;;;;;;;5049104;28;20677;-77
2021/12/09 00:20:06;;;;;;;3.63;3.22;;;;;;;;;;5056275;28;20195;-77
2021/12/09 00:22:34;;;;;;;6.50;3.42;;;;;;;;;;5059927;28;20670;-76
2021/12/09 00:25:01;;;;;;;3.33;3.03;;;;;;;;;;5047333;28;20226;-77
2021/12/09 00:27:29;;;;;;;8.07;4.32;;;;;;;;;;5059573;28;20194;-77
2021/12/09 00:29:56;;;;;;;3.95;3.30;;;;;;;;;;5050165;28;20209;-77
2021/12/09 00:32:23;;;;;;;3.85;2.63;;;;;;;;;;5057786;28;20198;-78
2021/12/09 00:34:51;;;;;;;2.80;2.60;;;;;;;;;;5055846;28;20194;-78
2021/12/09 00:37:23;;;;;;;8.23;3.65;;;;;;;;;;5064730;28;20242;-78
2021/12/09 00:39:53;;;;;;;4.05;3.38;;;;;;;;;;5048497;28;20284;-77
2021/12/09 00:42:20;;;;;;;4.43;3.15;;;;;;;;;;5046247;28;20688;-77
2021/12/09 00:44:48;;;;;;;3.17;2.88;;;;;;;;;;5044510;28;20202;-73
2021/12/09 00:47:15;;;;;;;3.85;2.85;;;;;;;;;;5058764;28;20202;-74
2021/12/09 00:49:42;;;;;;;3.95;3.10;;;;;;;;;;5051190;28;20412;-73
2021/12/09 00:52:09;;;;;;;3.97;2.72;;;;;;;;;;5059401;28;20214;-74
2021/12/09 00:54:37;;;;;;;5.32;2.97;;;;;;;;;;5057655;28;20205;-76
2021/12/09 00:57:06;;;;;;;6.97;2.72;;;;;;;;;;5061035;28;20975;-74
2021/12/09 00:59:33;;;;;;;4.63;3.10;;;;;;;;;;5059933;28;20229;-75
2021/12/09 01:02:00;;;;;;;3.83;3.00;;;;;;;;;;5039765;28;20682;-78
2021/12/09 01:04:27;;;;;;;5.15;2.45;;;;;;;;;;5042076;28;20547;-76
2021/12/09 01:06:54;;;;;;;2.70;2.50;;;;;;;;;;5056492;28;20345;-74
2021/12/09 01:09:21;;;;;;;4.82;2.78;;;;;;;;;;5044576;28;20222;-75
2021/12/09 01:11:48;;;;;;;3.90;2.70;;;;;;;;;;5055152;28;20213;-74
2021/12/09 01:14:17;;;;;;;3.65;3.20;;;;;;;;;;5071049;28;20198;-74
2021/12/09 01:16:44;;;;;;;3.30;2.60;;;;;;;;;;5050337;28;20203;-74
2021/12/09 01:19:11;;;;;;;5.05;3.30;;;;;;;;;;5043213;28;20203;-76
2021/12/09 01:21:38;;;;;;;3.05;2.47;;;;;;;;;;5060771;28;20218;-75
2021/12/09 01:24:05;;;;;;;3.97;2.72;;;;;;;;;;5051487;28;20206;-76
2021/12/09 01:26:33;;;;;;;4.30;3.25;;;;;;;;;;5043281;28;20223;-74
2021/12/09 01:29:04;;;;;;;5.78;3.25;;;;;;;;;;5050015;28;20194;-74
2021/12/09 01:31:36;;;;;;;2.17;2.03;;;;;;;;;;5042507;28;20203;-75
2021/12/09 01:34:04;;;;;;;7.38;3.35;;;;;;;;;;5037235;28;20194;-75
2021/12/09 01:36:32;;;;;;;3.58;3.33;;;;;;;;;;5059887;28;20226;-74
2021/12/09 01:38:59;;;;;;;6.38;2.78;;;;;;;;;;5067322;28;20190;-74
2021/12/09 01:41:26;;;;;;;4.97;3.15;;;;;;;;;;5045741;28;20575;-74
2021/12/09 01:43:54;;;;;;;5.80;2.88;;;;;;;;;;5050182;28;20195;-77
2021/12/09 01:46:21;;;;;;;3.05;2.75;;;;;;;;;;5043143;28;20245;-75
2021/12/09 01:48:51;;;;;;;3.45;2.55;;;;;;;;;;5036637;28;20222;-74
2021/12/09 01:51:18;;;;;;;2.80;2.60;;;;;;;;;;5058390;28;20191;-75
2021/12/09 01:53:45;;;;;;;4.40;2.65;;;;;;;;;;5050213;28;20191;-74
2021/12/09 01:56:14;;;;;;;3.85;2.35;;;;;;;;;;5043207;28;20567;-74
2021/12/09 01:58:41;;;;;;;3.25;2.50;;;;;;;;;;5046690;28;20684;-74
2021/12/09 02:01:09;;;;;;;3.50;2.35;;;;;;;;;;5046690;28;20222;-74
2021/12/09 02:03:36;;;;;;;2.53;2.33;;;;;;;;;;5048180;28;20854;-74
2021/12/09 02:06:05;;;;;;;2.53;2.33;;;;;;;;;;5058387;28;20225;-74
2021/12/09 02:08:32;;;;;;;4.22;2.40;;;;;;;;;;5055798;28;20199;-74
2021/12/09 02:10:59;;;;;;;7.50;3.25;;;;;;;;;;5049597;28;20198;-74
2021/12/09 02:13:27;;;;;;;3.33;2.42;;;;;;;;;;5049332;28;20215;-74
2021/12/09 02:15:56;;;;;;;3.60;2.65;;;;;;;;;;5037059;28;20195;-74
2021/12/09 02:18:23;;;;;;;3.25;2.53;;;;;;;;;;5049905;28;20203;-74
2021/12/09 02:21:06;;;;;;;7.35;3.00;;;;;;;;;;5054687;28;20199;-75
2021/12/09 02:23:34;;;;;;;2.50;2.20;;;;;;;;;;5051975;28;20202;-74
2021/12/09 02:26:02;;;;;;;3.00;2.55;;;;;;;;;;5045285;28;20574;-74
2021/12/09 02:28:29;;;;;;;5.78;2.97;;;;;;;;;;5049786;28;20199;-74
2021/12/09 02:30:56;;;;;;;3.28;2.85;;;;;;;;;;5049510;28;20202;-75
2021/12/09 02:33:23;;;;;;;5.45;2.05;;;;;;;;;;5059336;28;20201;-74
2021/12/09 02:35:50;;;;;;;3.10;2.80;;;;;;;;;;5054674;28;20194;-74
2021/12/09 02:38:17;;;;;;;4.28;2.78;;;;;;;;;;5056939;28;20191;-74
2021/12/09 02:40:48;;;;;;;4.50;2.72;;;;;;;;;;5044715;28;20477;-75
2021/12/09 02:43:15;;;;;;;3.80;2.83;;;;;;;;;;5053117;28;20202;-74
2021/12/09 02:45:48;;;;;;;3.47;2.50;;;;;;;;;;5051927;28;20198;-73
2021/12/09 02:48:17;;;;;;;3.17;2.15;;;;;;;;;;5052895;28;20280;-74
2021/12/09 02:50:44;;;;;;;4.55;1.88;;;;;;;;;;5060066;28;20195;-74
2021/12/09 02:53:11;;;;;;;4.28;2.40;;;;;;;;;;5056680;28;20199;-75
2021/12/09 02:55:38;;;;;;;3.42;2.65;;;;;;;;;;5055796;28;20618;-76
2021/12/09 02:58:07;;;;;;;6.40;2.67;;;;;;;;;;5058954;28;20201;-74
2021/12/09 03:00:34;;;;;;;2.83;2.00;;;;;;;;;;5059247;28;20210;-74
2021/12/09 03:03:01;;;;;;;5.22;2.00;;;;;;;;;;5047289;28;20605;-73
2021/12/09 03:05:28;;;;;;;2.80;2.20;;;;;;;;;;5053709;28;20207;-74
2021/12/09 03:07:55;;;;;;;3.63;2.80;;;;;;;;;;5062109;28;20603;-75
2021/12/09 03:10:25;;;;;;;6.30;2.75;;;;;;;;;;5054439;28;20207;-73
2021/12/09 03:12:53;;;;;;;2.58;2.38;;;;;;;;;;5051821;28;20304;-73
2021/12/09 03:15:22;;;;;;;4.97;2.88;;;;;;;;;;5062118;28;20680;-73
2021/12/09 03:17:49;;;;;;;2.35;1.90;;;;;;;;;;5060752;28;20678;-72
2021/12/09 03:20:17;;;;;;;3.15;2.20;;;;;;;;;;5053573;28;20674;-72
2021/12/09 03:22:45;;;;;;;5.78;2.10;;;;;;;;;;5057552;28;20199;-72
2021/12/09 03:25:13;;;;;;;4.15;2.70;;;;;;;;;;5050975;28;20199;-73
2021/12/09 03:27:41;;;;;;;2.60;2.08;;;;;;;;;;5052006;28;20702;-72
2021/12/09 03:30:12;;;;;;;3.85;2.38;;;;;;;;;;5051654;28;20547;-73
2021/12/09 03:32:40;;;;;;;5.25;2.60;;;;;;;;;;5053344;28;20206;-73
2021/12/09 03:35:08;;;;;;;4.45;2.92;;;;;;;;;;5052508;28;20199;-71
2021/12/09 03:37:36;;;;;;;3.75;2.10;;;;;;;;;;5052224;28;20651;-73
2021/12/09 03:40:03;;;;;;;3.15;2.20;;;;;;;;;;5054383;28;20195;-75
2021/12/09 03:42:31;;;;;;;4.65;2.20;;;;;;;;;;5056919;28;20206;-72
2021/12/09 03:44:59;;;;;;;3.70;2.30;;;;;;;;;;5049510;28;20191;-73
2021/12/09 03:47:27;;;;;;;5.43;3.00;;;;;;;;;;5052010;28;20702;-78
2021/12/09 03:49:56;;;;;;;3.10;2.13;;;;;;;;;;5062964;28;20202;-77
2021/12/09 03:52:24;;;;;;;1.83;1.50;;;;;;;;;;5055141;28;20206;-77
2021/12/09 03:54:51;;;;;;;3.65;2.20;;;;;;;;;;5036675;28;20200;-80
2021/12/09 03:57:18;;;;;;;3.53;2.53;;;;;;;;;;5049422;28;20202;-77
2021/12/09 03:59:46;;;;;;;3.05;2.50;;;;;;;;;;5060708;28;20221;-79
2021/12/09 04:02:14;;;;;;;3.47;2.35;;;;;;;;;;5044632;28;20195;-77
2021/12/09 04:04:42;;;;;;;2.38;2.17;;;;;;;;;;5064930;28;20593;-79
2021/12/09 04:07:10;;;;;;;2.33;2.03;;;;;;;;;;5063210;28;20211;-78
2021/12/09 04:09:37;;;;;;;5.20;1.95;;;;;;;;;;5048632;28;20202;-79
2021/12/09 04:12:05;;;;;;;5.97;2.40;;;;;;;;;;5052421;28;20642;-81
2021/12/09 04:14:32;;;;;;;2.63;2.42;;;;;;;;;;5055857;28;20203;-79
2021/12/09 04:16:59;;;;;;;2.95;2.08;;;;;;;;;;5049557;28;20202;-80
2021/12/09 04:19:27;;;;;;;3.38;2.58;;;;;;;;;;5055965;28;20666;-80
2021/12/09 04:21:54;;;;;;;5.30;2.40;;;;;;;;;;5059077;28;20194;-81
2021/12/09 04:24:22;;;;;;;2.53;2.15;;;;;;;;;;5051271;28;20553;-79
2021/12/09 04:26:51;;;;;;;3.60;1.95;;;;;;;;;;5055619;28;20222;-79
2021/12/09 04:29:19;;;;;;;2.00;1.80;;;;;;;;;;5060831;28;20191;-79
2021/12/09 04:31:48;;;;;;;3.03;2.15;;;;;;;;;;5047865;28;20554;-80
2021/12/09 04:34:16;;;;;;;4.38;1.67;;;;;;;;;;5058440;28;20194;-80
2021/12/09 04:36:43;;;;;;;5.65;2.58;;;;;;;;;;5050613;28;20663;-80
2021/12/09 04:39:10;;;;;;;4.05;2.75;;;;;;;;;;5053326;28;20228;-80
2021/12/09 04:41:39;;;;;;;2.78;2.10;;;;;;;;;;5049882;28;20207;-80
2021/12/09 04:44:07;;;;;;;3.33;2.35;;;;;;;;;;5051431;28;20199;-80
2021/12/09 04:46:34;;;;;;;5.80;2.88;;;;;;;;;;5050363;28;20225;-80
2021/12/09 04:49:01;;;;;;;3.72;2.30;;;;;;;;;;5053132;28;20194;-81
2021/12/09 04:51:28;;;;;;;3.45;2.35;;;;;;;;;;5058631;28;20213;-81
2021/12/09 04:53:56;;;;;;;5.00;2.53;;;;;;;;;;5053793;28;20555;-78
2021/12/09 04:56:23;;;;;;;4.38;3.03;;;;;;;;;;5050070;28;20202;-79
2021/12/09 04:58:52;;;;;;;7.05;2.78;;;;;;;;;;5051999;28;20195;-79
2021/12/09 05:01:19;;;;;;;2.40;2.20;;;;;;;;;;5051184;28;20194;-79
2021/12/09 05:03:48;;;;;;;1.85;1.75;;;;;;;;;;5061156;28;20201;-80
2021/12/09 05:06:16;;;;;;;2.88;2.58;;;;;;;;;;5060731;28;20221;-79
2021/12/09 05:08:46;;;;;;;4.90;2.30;;;;;;;;;;5052243;28;20256;-79
2021/12/09 05:11:27;;;;;;;3.47;2.33;;;;;;;;;;5057600;28;20198;-79
2021/12/09 05:13:56;;;;;;;3.97;2.50;;;;;;;;;;5050622;28;20450;-80
2021/12/09 05:16:24;;;;;;;3.40;3.10;;;;;;;;;;5043310;28;20457;-79
2021/12/09 05:18:57;;;;;;;2.30;2.10;;;;;;;;;;5046905;28;20638;-81
2021/12/09 05:21:24;;;;;;;2.58;2.38;;;;;;;;;;5062500;28;20570;-80
2021/12/09 05:23:51;;;;;;;3.17;2.20;;;;;;;;;;5054537;28;20191;-81
2021/12/09 05:26:20;;;;;;;5.55;2.60;;;;;;;;;;5047013;28;20195;-80
2021/12/09 05:28:54;;;;;;;4.18;2.75;;;;;;;;;;5049766;28;20206;-80
2021/12/09 05:34:07;;;;;;;4.07;3.67;;;;;;;;;;5010014;28;20199;-79
2021/12/09 05:36:34;;;;;;;4.88;3.00;;;;;;;;;;5058254;28;20633;-80
2021/12/09 05:39:01;;;;;;;4.32;3.10;;;;;;;;;;5055858;28;20199;-79
2021/12/09 05:41:28;;;;;;;3.83;2.28;;;;;;;;;;5051703;28;20202;-77
2021/12/09 05:43:56;;;;;;;3.35;2.20;;;;;;;;;;5052615;28;20654;-78
2021/12/09 05:46:24;;;;;;;3.58;2.20;;;;;;;;;;5048892;28;20199;-77
2021/12/09 05:48:51;;;;;;;5.47;2.92;;;;;;;;;;5057122;28;20202;-78
2021/12/09 05:51:19;;;;;;;2.53;2.25;;;;;;;;;;5053752;28;20233;-78
2021/12/09 05:53:46;;;;;;;2.83;2.13;;;;;;;;;;5049843;28;20257;-78
2021/12/09 05:56:14;;;;;;;2.92;2.00;;;;;;;;;;5048033;28;20630;-78
2021/12/09 05:58:41;;;;;;;3.72;2.85;;;;;;;;;;5049837;28;20289;-78
2021/12/09 06:01:08;;;;;;;3.10;2.33;;;;;;;;;;5048616;28;20221;-78
2021/12/09 06:03:36;;;;;;;4.00;1.65;;;;;;;;;;5052259;28;20293;-78
2021/12/09 06:06:03;;;;;;;3.38;2.90;;;;;;;;;;5052538;28;20194;-78
2021/12/09 06:08:30;;;;;;;5.95;2.30;;;;;;;;;;5064666;28;20211;-79
2021/12/09 06:10:59;;;;;;;3.55;2.78;;;;;;;;;;5052369;28;20191;-78
2021/12/09 06:13:29;;;;;;;5.55;2.55;;;;;;;;;;5053450;28;20317;-79
2021/12/09 06:15:57;;;;;;;7.25;2.90;;;;;;;;;;5051544;28;20280;-79
2021/12/09 06:18:24;;;;;;;3.05;2.15;;;;;;;;;;5052252;28;20229;-79
2021/12/09 06:20:52;;;;;;;2.72;2.35;;;;;;;;;;5061655;28;20195;-79
2021/12/09 06:23:19;;;;;;;4.45;2.60;;;;;;;;;;5051555;28;20202;-78
2021/12/09 06:25:46;;;;;;;3.58;2.80;;;;;;;;;;5049904;28;20191;-79
2021/12/09 06:28:14;;;;;;;4.15;2.65;;;;;;;;;;5053319;28;20639;-79
2021/12/09 06:30:41;;;;;;;2.95;2.25;;;;;;;;;;5050594;28;20207;-78
2021/12/09 06:33:09;;;;;;;6.13;2.92;;;;;;;;;;5054365;28;20227;-78
2021/12/09 06:35:37;;;;;;;7.50;2.38;;;;;;;;;;5054483;28;20203;-78
2021/12/09 06:38:08;;;;;;;2.15;1.95;;;;;;;;;;5059707;28;20709;-78
2021/12/09 06:40:35;;;;;;;3.90;2.70;;;;;;;;;;5060355;28;20199;-78
2021/12/09 06:43:03;;;;;;;3.17;2.65;;;;;;;;;;5054155;28;20194;-78
2021/12/09 06:45:30;;;;;;;5.47;2.42;;;;;;;;;;5051932;28;20203;-79
2021/12/09 06:47:57;;;;;;;3.55;2.75;;;;;;;;;;5054028;28;20211;-78
2021/12/09 06:50:24;;;;;;;3.35;3.00;;;;;;;;;;5056049;28;20677;-78
2021/12/09 06:52:52;;;;;;;3.17;2.28;;;;;;;;;;5052631;28;20194;-78
2021/12/09 06:55:21;;;;;;;4.45;2.83;;;;;;;;;;5049185;28;20210;-78
2021/12/09 06:57:49;;;;;;;6.03;2.78;;;;;;;;;;5053010;28;20188;-79
2021/12/09 07:00:17;;;;;;;6.80;2.95;;;;;;;;;;5052260;28;20214;-79
2021/12/09 07:02:46;;;;;;;6.85;4.90;;;;;;;;;;5059532;28;20289;-79
2021/12/09 07:05:13;;;;;;;3.72;2.80;;;;;;;;;;5053511;28;20205;-79
2021/12/09 07:07:41;;;;;;;3.20;2.70;;;;;;;;;;5047723;28;20693;-78
2021/12/09 07:10:09;;;;;;;3.35;2.97;;;;;;;;;;5050330;28;20266;-79
2021/12/09 07:12:38;;;;;;;4.25;2.45;;;;;;;;;;5052533;28;20690;-78
2021/12/09 07:15:06;;;;;;;6.38;3.13;;;;;;;;;;5051804;28;20229;-79
2021/12/09 07:17:33;;;;;;;5.63;3.13;;;;;;;;;;5044393;28;20199;-79
2021/12/09 07:20:01;;;;;;;2.75;2.30;;;;;;;;;;5059398;28;20207;-79
2021/12/09 07:22:28;;;;;;;5.10;3.08;;;;;;;;;;5057332;28;20199;-79
2021/12/09 07:24:55;;;;;;;4.68;3.13;;;;;;;;;;5044888;28;20198;-79
2021/12/09 07:27:22;;;;;;;6.18;3.33;;;;;;;;;;5052603;28;20586;-79
2021/12/09 07:29:53;;;;;;;4.28;2.65;;;;;;;;;;5040846;28;20199;-78
2021/12/09 07:32:20;;;;;;;4.18;2.72;;;;;;;;;;5049726;28;20201;-78
2021/12/09 07:34:47;;;;;;;4.82;3.20;;;;;;;;;;5055342;28;20201;-79
2021/12/09 07:37:14;;;;;;;4.45;2.30;;;;;;;;;;5056625;28;20191;-78
2021/12/09 07:39:42;;;;;;;2.90;2.60;;;;;;;;;;5051691;28;20194;-79
2021/12/09 07:44:53;;;;;;;3.30;2.40;;;;;;;;;;5009360;28;20293;-79
2021/12/09 07:47:20;;;;;;;4.10;2.70;;;;;;;;;;5046246;28;20245;-78
2021/12/09 07:49:47;;;;;;;4.05;2.85;;;;;;;;;;5060303;28;20432;-79
2021/12/09 07:52:14;;;;;;;4.28;2.63;;;;;;;;;;5052369;28;20554;-79
2021/12/09 07:54:41;;;;;;;2.28;2.00;;;;;;;;;;5051051;28;20471;-78
2021/12/09 07:57:08;;;;;;;3.90;2.53;;;;;;;;;;5054668;28;20207;-78
2021/12/09 07:59:36;;;;;;;5.45;2.60;;;;;;;;;;5055842;28;20661;-79
2021/12/09 08:02:05;;;;;;;4.20;2.65;;;;;;;;;;5053667;28;20203;-78
2021/12/09 08:07:36;;;;;;;2.63;2.30;;;;;;;;;;5040560;28;20747;-78
2021/12/09 08:10:03;;;;;;;3.03;2.40;;;;;;;;;;5046085;28;20206;-79
2021/12/09 08:12:30;;;;;;;2.95;2.65;;;;;;;;;;5050290;28;20210;-78
2021/12/09 08:14:57;;;;;;;6.88;2.60;;;;;;;;;;5059191;28;20295;-79
2021/12/09 08:17:44;;;;;;;4.88;2.75;;;;;;;;;;5047881;28;20203;-78
2021/12/09 08:20:12;;;;;;;5.20;3.22;;;;;;;;;;5057398;28;20539;-79
2021/12/09 08:22:40;;;;;;;5.75;3.35;;;;;;;;;;5062096;28;20198;-80
2021/12/09 08:25:08;;;;;;;2.70;2.35;;;;;;;;;;5066097;28;20202;-78
2021/12/09 08:27:36;;;;;;;2.42;2.20;;;;;;;;;;5064449;28;20589;-79
2021/12/09 08:30:06;;;;;;;5.35;3.05;;;;;;;;;;5050262;28;20195;-79
2021/12/09 08:32:34;;;;;;;3.05;2.75;;;;;;;;;;5054088;28;20201;-79
2021/12/09 08:35:01;;;;;;;5.07;3.40;;;;;;;;;;5056132;28;20191;-80
2021/12/09 08:37:30;;;;;;;3.53;2.45;;;;;;;;;;5057480;28;20222;-79
2021/12/09 08:39:57;;;;;;;7.90;3.15;;;;;;;;;;5046174;28;20203;-79
2021/12/09 08:42:25;;;;;;;4.25;2.85;;;;;;;;;;5047626;28;20199;-78
2021/12/09 08:44:52;;;;;;;3.22;2.70;;;;;;;;;;5048355;28;20638;-79
2021/12/09 08:47:19;;;;;;;3.97;2.65;;;;;;;;;;5049405;28;20202;-79
2021/12/09 08:49:47;;;;;;;5.22;3.65;;;;;;;;;;5063409;28;20197;-80
2021/12/09 08:52:15;;;;;;;3.75;2.60;;;;;;;;;;5049163;28;20194;-79
2021/12/09 08:54:42;;;;;;;4.10;2.83;;;;;;;;;;5052228;28;20198;-79
2021/12/09 08:57:11;;;;;;;4.50;2.83;;;;;;;;;;5062665;28;20205;-78
2021/12/09 08:59:38;;;;;;;3.40;3.10;;;;;;;;;;5049631;28;20221;-79
2021/12/09 09:02:05;;;;;;;4.88;3.03;;;;;;;;;;5054768;28;20195;-79
2021/12/09 09:04:32;;;;;;;5.15;3.08;;;;;;;;;;5065005;28;20213;-79
2021/12/09 09:07:02;;;;;;;4.05;3.22;;;;;;;;;;5057571;28;20190;-79
2021/12/09 09:09:33;;;;;;;3.60;2.85;;;;;;;;;;5051702;28;20281;-79
2021/12/09 09:12:04;;;;;;;3.15;2.75;;;;;;;;;;5056443;28;20202;-80
2021/12/09 09:14:31;;;;;;;8.82;2.78;;;;;;;;;;5059885;28;20227;-81
2021/12/09 09:16:58;;;;;;;4.50;3.00;;;;;;;;;;5058494;28;20222;-79
2021/12/09 09:19:26;;;;;;;3.83;2.70;;;;;;;;;;5054302;28;20203;-79
2021/12/09 09:21:53;;;;;;;5.55;3.10;;;;;;;;;;5053178;28;20574;-78
2021/12/09 09:24:22;;;;;;;6.00;3.10;;;;;;;;;;5058223;28;20198;-80
2021/12/09 09:26:49;;;;;;;2.50;2.30;;;;;;;;;;5055775;28;20654;-79
2021/12/09 09:29:16;;;;;;;3.33;3.00;;;;;;;;;;5057581;28;20218;-80
2021/12/09 09:31:43;;;;;;;4.78;2.47;;;;;;;;;;5053790;28;20202;-79
2021/12/09 09:34:11;;;;;;;5.22;3.25;;;;;;;;;;5066540;28;20538;-79
2021/12/09 09:36:44;;;;;;;6.55;3.10;;;;;;;;;;5050364;28;20245;-78
2021/12/09 09:39:17;;;;;;;6.80;3.17;;;;;;;;;;5050033;28;20555;-80
2021/12/09 09:41:48;;;;;;;5.13;3.33;;;;;;;;;;5057619;28;20271;-80
2021/12/09 09:44:17;;;;;;;2.65;2.42;;;;;;;;;;5058926;28;20218;-80
2021/12/09 09:46:45;;;;;;;3.20;2.90;;;;;;;;;;5051363;28;20199;-79
2021/12/09 09:49:12;;;;;;;3.88;2.40;;;;;;;;;;5062272;28;20570;-79
2021/12/09 09:51:40;;;;;;;4.60;2.15;;;;;;;;;;5058776;28;20288;-79
2021/12/09 09:54:08;;;;;;;3.13;2.78;;;;;;;;;;5068717;28;20193;-80
2021/12/09 09:56:40;;;;;;;3.00;2.67;;;;;;;;;;5056037;28;20677;-79
2021/12/09 09:59:12;;;;;;;5.85;3.10;;;;;;;;;;5059748;28;20213;-79
2021/12/09 10:01:40;;;;;;;3.38;2.60;;;;;;;;;;5055690;28;20190;-79
2021/12/09 10:04:13;;;;;;;3.65;2.22;;;;;;;;;;5060905;28;20561;-79
2021/12/09 10:06:41;;;;;;;3.25;2.22;;;;;;;;;;5055460;28;20195;-80
2021/12/09 10:09:08;;;;;;;5.68;3.10;;;;;;;;;;5053154;28;20214;-79
2021/12/09 10:11:36;;;;;;;3.88;2.95;;;;;;;;;;5067360;28;20217;-80
2021/12/09 10:14:12;;;;;;;5.22;2.78;;;;;;;;;;5067227;28;20665;-80
2021/12/09 10:16:41;;;;;;;2.85;2.65;;;;;;;;;;5055054;28;20205;-79
2021/12/09 10:19:15;;;;;;;4.35;2.83;;;;;;;;;;5065433;28;20190;-79
2021/12/09 10:21:43;;;;;;;6.90;2.20;;;;;;;;;;5066882;28;20573;-79
2021/12/09 10:24:10;;;;;;;3.75;2.75;;;;;;;;;;5058430;28;20190;-79
2021/12/09 10:26:39;;;;;;;5.95;3.20;;;;;;;;;;5047683;28;20209;-79
2021/12/09 10:29:08;;;;;;;3.53;2.50;;;;;;;;;;5056422;28;20313;-80
2021/12/09 10:31:41;;;;;;;4.05;2.17;;;;;;;;;;5061779;28;20659;-79
2021/12/09 10:34:14;;;;;;;7.75;3.78;;;;;;;;;;5063188;28;20641;-79
2021/12/09 10:36:46;;;;;;;5.05;3.13;;;;;;;;;;5055436;28;20296;-80
2021/12/09 10:39:18;;;;;;;4.72;2.60;;;;;;;;;;5064313;28;20566;-79
2021/12/09 10:41:45;;;;;;;3.60;2.55;;;;;;;;;;5047526;28;20195;-79
2021/12/09 10:44:12;;;;;;;8.13;2.88;;;;;;;;;;5052575;28;20204;-79
2021/12/09 10:46:49;;;;;;;6.55;3.05;;;;;;;;;;5060068;28;20209;-79
2021/12/09 10:49:17;;;;;;;6.22;2.53;;;;;;;;;;5064686;28;20245;-79
2021/12/09 10:51:55;;;;;;;4.68;2.42;;;;;;;;;;5063623;28;20199;-80
2021/12/09 10:54:31;;;;;;;4.28;2.60;;;;;;;;;;5063416;28;20197;-80
2021/12/09 10:56:58;;;;;;;3.75;2.75;;;;;;;;;;5050434;28;20767;-80
2021/12/09 10:59:30;;;;;;;4.00;3.28;;;;;;;;;;5061325;28;20618;-80
2021/12/09 11:02:07;;;;;;;2.97;2.28;;;;;;;;;;5051168;28;20199;-79
2021/12/09 11:04:34;;;;;;;4.55;2.05;;;;;;;;;;5056024;28;20205;-80
2021/12/09 11:07:19;;;;;;;3.67;2.38;;;;;;;;;;5054983;28;20203;-80
2021/12/09 11:09:46;;;;;;;3.00;2.22;;;;;;;;;;5036696;28;20215;-80
2021/12/09 11:12:27;;;;;;;3.22;2.20;;;;;;;;;;5058265;28;20589;-79
2021/12/09 11:15:00;;;;;;;6.53;2.15;;;;;;;;;;5047638;28;20204;-80
2021/12/09 11:17:37;;;;;;;3.10;2.30;;;;;;;;;;5049875;28;20210;-80
2021/12/09 11:20:05;;;;;;;2.75;2.17;;;;;;;;;;5057792;28;20190;-80
2021/12/09 11:22:35;;;;;;;6.20;2.33;;;;;;;;;;5052763;28;20300;-80
2021/12/09 11:25:04;;;;;;;7.80;2.08;;;;;;;;;;5064521;28;20206;-80
2021/12/09 11:27:31;;;;;;;5.75;2.50;;;;;;;;;;5050357;28;20211;-79
2021/12/09 11:30:09;;;;;;;6.80;2.97;;;;;;;;;;5057814;28;20358;-79
2021/12/09 11:32:43;;;;;;;3.53;2.15;;;;;;;;;;5058636;28;20285;-80
2021/12/09 11:35:14;;;;;;;3.17;2.38;;;;;;;;;;5056271;28;20256;-79
2021/12/09 11:37:46;;;;;;;4.20;2.45;;;;;;;;;;5058018;28;20578;-80
2021/12/09 11:40:17;;;;;;;3.22;2.50;;;;;;;;;;5052168;28;20348;-79
2021/12/09 11:42:49;;;;;;;5.28;2.72;;;;;;;;;;5057735;28;20191;-80
2021/12/09 11:45:17;;;;;;;2.42;2.03;;;;;;;;;;5057969;28;20605;-80
2021/12/09 11:47:47;;;;;;;3.28;2.75;;;;;;;;;;5059571;28;20256;-77
2021/12/09 11:50:16;;;;;;;3.40;2.25;;;;;;;;;;5055268;28;20219;-79
2021/12/09 11:52:44;;;;;;;6.97;2.40;;;;;;;;;;5048314;28;20581;-78
2021/12/09 11:55:13;;;;;;;6.65;1.83;;;;;;;;;;5051648;28;20202;-80
2021/12/09 11:57:44;;;;;;;3.80;2.20;;;;;;;;;;5053586;28;20653;-79
2021/12/09 12:11:55;;;;;;;3.35;2.05;;;;;;;;;;5052895;28;20201;-79
2021/12/09 12:14:36;;;;;;;4.53;2.00;;;;;;;;;;5046920;28;20210;-80
2021/12/09 12:17:20;;;;;;;4.07;2.40;;;;;;;;;;5048712;28;20199;-79
2021/12/09 12:23:15;;;;;;;3.80;2.35;;;;;;;;;;5037303;28;20194;-80
2021/12/09 12:26:26;;;;;;;3.90;2.10;;;;;;;;;;5053884;28;20195;-79
2021/12/09 12:29:22;;;;;;;2.50;2.28;;;;;;;;;;5050621;28;20219;-79
2021/12/09 12:32:15;;;;;;;3.53;2.40;;;;;;;;;;5043683;28;20230;-79
2021/12/09 12:34:58;;;;;;;5.88;2.05;;;;;;;;;;5061046;28;20206;-79
2021/12/09 12:37:49;;;;;;;2.50;2.30;;;;;;;;;;5048675;28;20214;-80
2021/12/09 12:40:18;;;;;;;5.10;2.25;;;;;;;;;;5048660;28;20285;-80
2021/12/09 12:42:51;;;;;;;5.53;2.22;;;;;;;;;;5041130;28;20207;-80
2021/12/09 12:45:30;;;;;;;2.17;1.90;;;;;;;;;;5046838;28;20359;-79
2021/12/09 12:47:59;;;;;;;3.15;2.10;;;;;;;;;;5047086;28;20205;-80
2021/12/09 12:50:27;;;;;;;6.22;2.20;;;;;;;;;;5054272;28;20229;-79
2021/12/09 12:52:57;;;;;;;2.40;1.85;;;;;;;;;;5044991;28;20194;-80
2021/12/09 12:55:27;;;;;;;4.63;3.15;;;;;;;;;;5052092;28;20194;-80
2021/12/09 12:57:54;;;;;;;2.75;2.53;;;;;;;;;;5042879;28;20257;-80
2021/12/09 13:00:25;;;;;;;3.67;2.22;;;;;;;;;;5043247;28;20218;-80
2021/12/09 13:05:57;;;;;;;3.42;2.88;;;;;;;;;;5048174;28;20199;-80
2021/12/09 13:08:48;;;;;;;3.28;2.42;;;;;;;;;;5042216;28;20809;-80
2021/12/09 13:11:22;;;;;;;2.95;2.50;;;;;;;;;;5057310;28;20578;-79
2021/12/09 13:14:01;;;;;;;4.40;2.55;;;;;;;;;;5035192;28;20612;-80
2021/12/09 13:16:39;;;;;;;8.30;2.35;;;;;;;;;;5053735;28;20252;-80
2021/12/09 13:19:11;;;;;;;3.22;2.50;;;;;;;;;;5058509;28;20229;-80
2021/12/09 13:21:46;;;;;;;12.68;3.58;;;;;;;;;;5064186;28;20444;-80
2021/12/09 13:24:44;;;;;;;4.75;3.28;;;;;;;;;;5051852;28;20635;-79
2021/12/09 13:27:42;;;;;;;3.38;2.55;;;;;;;;;;5061645;28;20653;-79
2021/12/09 13:30:22;;;;;;;9.50;3.30;;;;;;;;;;5050836;28;20321;-79
2021/12/09 13:35:57;;;;;;;4.45;2.85;;;;;;;;;;5039907;28;20214;-80
2021/12/09 13:47:05;;;;;;;4.60;2.97;;;;;;;;;;5050165;28;20221;-81
2021/12/09 13:49:46;;;;;;;4.55;3.35;;;;;;;;;;5038789;28;20258;-80
2021/12/09 13:54:56;;;;;;;3.28;2.30;;;;;;;;;;5046287;28;20194;-80
2021/12/09 13:57:30;;;;;;;2.97;2.17;;;;;;;;;;5060522;28;20562;-80
2021/12/09 13:59:57;;;;;;;5.78;2.75;;;;;;;;;;5055926;28;20214;-79
2021/12/09 14:02:26;;;;;;;3.38;3.05;;;;;;;;;;5059125;28;20218;-80
2021/12/09 14:04:54;;;;;;;5.90;2.60;;;;;;;;;;5041023;28;20205;-80
2021/12/09 14:07:27;;;;;;;6.25;3.28;;;;;;;;;;5057980;28;20213;-80
2021/12/09 14:09:59;;;;;;;3.03;2.72;;;;;;;;;;5061239;28;20215;-80
2021/12/09 14:12:29;;;;;;;5.63;2.72;;;;;;;;;;5045187;28;20208;-80
2021/12/09 14:15:04;;;;;;;3.95;2.53;;;;;;;;;;5056915;28;20199;-80
2021/12/09 14:17:33;;;;;;;2.88;1.88;;;;;;;;;;5042610;28;20484;-79
2021/12/09 14:20:02;;;;;;;3.65;2.33;;;;;;;;;;5034988;28;20191;-80
2021/12/09 14:22:29;;;;;;;9.60;3.05;;;;;;;;;;5039202;28;20544;-80
2021/12/09 14:25:00;;;;;;;4.53;3.20;;;;;;;;;;5043769;28;20206;-80
2021/12/09 14:27:27;;;;;;;6.30;2.70;;;;;;;;;;5049941;28;20213;-80
2021/12/09 14:29:56;;;;;;;2.95;2.33;;;;;;;;;;5052127;28;20415;-81
2021/12/09 14:32:24;;;;;;;3.13;2.20;;;;;;;;;;5054575;28;20657;-78
2021/12/09 14:34:54;;;;;;;3.60;2.50;;;;;;;;;;5052941;28;20218;-80
2021/12/09 14:37:22;;;;;;;2.47;2.13;;;;;;;;;;5050093;28;20195;-81
2021/12/09 14:39:49;;;;;;;3.20;2.72;;;;;;;;;;5053459;28;20206;-80
2021/12/09 14:42:17;;;;;;;3.20;2.13;;;;;;;;;;5052389;28;20207;-79
2021/12/09 14:44:54;;;;;;;3.67;2.35;;;;;;;;;;5052509;28;20195;-80
2021/12/09 14:47:21;;;;;;;2.85;2.55;;;;;;;;;;5049225;28;20661;-80
2021/12/09 14:49:49;;;;;;;5.35;2.60;;;;;;;;;;5052201;28;20704;-80
2021/12/09 14:52:28;;;;;;;3.00;2.50;;;;;;;;;;5047400;28;20264;-81
2021/12/09 14:55:10;;;;;;;2.35;2.15;;;;;;;;;;5053620;28;20199;-80
2021/12/09 14:57:51;;;;;;;3.80;2.28;;;;;;;;;;5053390;28;20264;-81
2021/12/09 15:00:28;;;;;;;1.98;1.70;;;;;;;;;;5050743;28;20218;-82
2021/12/09 15:02:55;;;;;;;4.15;3.05;;;;;;;;;;5058760;28;20203;-80
2021/12/09 15:05:22;;;;;;;2.42;2.22;;;;;;;;;;5053770;28;20673;-79
2021/12/09 15:07:58;;;;;;;3.45;2.65;;;;;;;;;;5053448;28;20198;-81
2021/12/09 15:10:26;;;;;;;2.88;2.30;;;;;;;;;;5055434;28;20222;-80
2021/12/09 15:12:59;;;;;;;2.78;2.05;;;;;;;;;;5064366;28;20206;-88
2021/12/09 15:15:27;;;;;;;3.10;1.98;;;;;;;;;;5061464;28;20213;-83
2021/12/09 15:17:56;;;;;;;3.95;2.00;;;;;;;;;;5034333;28;20210;-83
2021/12/09 15:20:30;;;;;;;8.27;3.22;;;;;;;;;;5035680;28;20643;-83
2021/12/09 15:23:06;;;;;;;3.30;1.90;;;;;;;;;;5060547;28;20293;-81
2021/12/09 15:25:35;;;;;;;2.80;2.08;;;;;;;;;;5062832;28;20187;-84
2021/12/09 15:28:03;;;;;;;5.05;2.70;;;;;;;;;;5061300;28;20195;-79
2021/12/09 15:30:42;;;;;;;3.65;2.08;;;;;;;;;;5046039;28;20586;-86
2021/12/09 15:33:10;;;;;;;2.22;2.03;;;;;;;;;;5035006;28;20195;-84
2021/12/09 15:35:37;;;;;;;2.75;2.00;;;;;;;;;;5047901;28;20206;-84
2021/12/09 15:38:06;;;;;;;3.65;2.63;;;;;;;;;;5056427;28;20203;-85